Time;durP1;ratioP1;P1;durP2;ratioP2;P2;SDS_P1;SDS_P2;PMS_P1;PMS_P2;Temp;Humidity;BMP_temperature;BMP_pressure;BME280_temperature;BME280_humidity;BME280_pressure;Samples;Min_cycle;Max_cycle;Signal;HPM_P1;HPM_P2
2021/12/11 00:01:20;;;;;;;19.30;10.48;;;;;;;4.15;82.79;99427.13;5090370;28;20028;-20
2021/12/11 00:03:48;;;;;;;18.85;11.13;;;;;;;3.74;84.62;99442.81;5091007;28;20748;-21
2021/12/11 00:06:21;;;;;;;27.40;15.60;;;;;;;3.48;85.47;99446.84;5072852;28;20484;-20
2021/12/11 00:08:47;;;;;;;23.85;15.32;;;;;;;3.28;86.96;99451.09;5072508;28;20647;-20
2021/12/11 00:11:20;;;;;;;23.50;14.85;;;;;;;3.35;86.31;99463.34;5090389;28;20396;-20
2021/12/11 00:13:46;;;;;;;25.20;13.43;;;;;;;3.51;84.91;99462.28;5090389;28;20024;-20
2021/12/11 00:16:17;;;;;;;24.45;13.75;;;;;;;3.59;83.54;99464.78;5072315;28;20039;-20
2021/12/11 00:18:43;;;;;;;24.75;14.18;;;;;;;3.81;81.48;99472.72;5090360;28;20042;-21
2021/12/11 00:21:14;;;;;;;25.30;12.60;;;;;;;3.61;80.84;99489.16;5090671;28;20471;-21
2021/12/11 00:23:52;;;;;;;32.60;18.30;;;;;;;3.19;81.65;99482.84;5090236;28;20502;-20
2021/12/11 00:26:36;;;;;;;46.45;28.90;;;;;;;3.41;81.43;99504.78;5073036;28;20115;-20
2021/12/11 00:29:02;;;;;;;23.92;13.95;;;;;;;3.54;80.44;99493.56;5090186;28;20024;-20
2021/12/11 00:31:28;;;;;;;35.00;20.35;;;;;;;3.17;82.08;99502.47;5090274;28;20040;-21
2021/12/11 00:33:54;;;;;;;30.20;17.92;;;;;;;3.00;81.15;99518.47;5090260;28;20498;-20
2021/12/11 00:36:21;;;;;;;25.83;14.13;;;;;;;2.91;81.87;99514.31;5089877;28;20055;-20
2021/12/11 00:38:49;;;;;;;27.13;13.70;;;;;;;2.90;82.18;99511.84;5090057;28;20022;-20
2021/12/11 00:41:15;;;;;;;32.63;18.80;;;;;;;3.38;82.38;99528.06;5089990;28;20063;-20
2021/12/11 00:43:41;;;;;;;38.28;22.23;;;;;;;3.55;80.91;99508.34;5071596;28;20051;-20
2021/12/11 00:46:08;;;;;;;35.88;18.63;;;;;;;3.36;80.60;99511.59;5090030;28;20127;-21
2021/12/11 00:48:33;;;;;;;29.83;16.90;;;;;;;3.26;81.62;99530.34;5090195;28;20063;-20
2021/12/11 00:51:07;;;;;;;27.90;15.48;;;;;;;2.98;82.61;99501.22;5090071;28;20066;-21
2021/12/11 00:53:42;;;;;;;29.95;16.23;;;;;;;3.44;81.63;99519.41;5089753;28;20115;-21
2021/12/11 00:56:19;;;;;;;33.08;18.55;;;;;;;3.51;81.16;99536.09;5071776;28;20470;-20
2021/12/11 00:58:45;;;;;;;30.73;16.30;;;;;;;3.48;80.85;99554.13;5089558;28;20032;-20
2021/12/11 01:01:25;;;;;;;22.88;12.70;;;;;;;3.13;83.21;99554.72;5071395;28;20482;-20
2021/12/11 01:04:01;;;;;;;21.52;14.02;;;;;;;3.25;83.39;99536.63;5089718;28;20107;-21
2021/12/11 01:06:36;;;;;;;22.60;12.98;;;;;;;3.13;82.28;99528.38;5089368;28;20032;-20
2021/12/11 01:09:14;;;;;;;24.83;13.27;;;;;;;3.37;82.41;99539.59;5089460;28;20052;-20
2021/12/11 01:12:22;;;;;;;22.58;13.40;;;;;;;3.17;83.27;99519.09;5089320;28;20107;-21
2021/12/11 01:14:56;;;;;;;30.05;18.20;;;;;;;3.16;83.45;99512.19;5006084;28;20561;-22
2021/12/11 01:17:49;;;;;;;22.45;12.80;;;;;;;2.63;85.96;99510.66;5006975;28;20044;-20
2021/12/11 01:20:34;;;;;;;27.50;14.48;;;;;;;1.93;84.91;99497.66;5065002;28;20071;-20
2021/12/11 01:23:00;;;;;;;149.57;71.93;;;;;;;2.46;84.53;99494.22;5089179;28;20036;-20
2021/12/11 01:25:26;;;;;;;60.30;32.10;;;;;;;2.49;84.04;99467.53;5088908;28;20031;-20
2021/12/11 01:27:55;;;;;;;35.35;20.27;;;;;;;2.60;84.08;99444.22;5070984;28;20032;-20
2021/12/11 01:30:27;;;;;;;33.15;21.67;;;;;;;2.87;84.53;99470.91;5089005;28;20040;-20
2021/12/11 01:32:52;;;;;;;33.90;19.73;;;;;;;3.03;85.25;99475.16;5070965;28;20036;-20
2021/12/11 01:35:18;;;;;;;29.80;16.83;;;;;;;3.38;83.80;99485.88;5089039;28;20094;-21
2021/12/11 01:37:45;;;;;;;26.58;13.80;;;;;;;3.29;83.61;99484.34;5071051;28;20032;-21
2021/12/11 01:40:11;;;;;;;21.95;13.32;;;;;;;3.68;82.34;99499.78;5088777;28;20032;-20
2021/12/11 01:42:39;;;;;;;18.92;11.27;;;;;;;3.57;81.80;99503.72;5088564;28;20115;-21
2021/12/11 01:45:06;;;;;;;19.67;11.18;;;;;;;3.24;84.43;99510.44;5071071;28;20050;-22
2021/12/11 01:47:34;;;;;;;23.98;13.93;;;;;;;3.04;85.14;99505.75;5070652;28;20052;-20
2021/12/11 01:50:19;;;;;;;31.23;17.17;;;;;;;3.12;84.18;99495.09;5070545;28;20086;-20
2021/12/11 01:52:53;;;;;;;30.08;16.50;;;;;;;3.13;83.46;99491.47;5088529;28;20269;-20
2021/12/11 01:55:33;;;;;;;24.33;13.15;;;;;;;3.19;82.47;99466.22;5088643;28;20135;-20
2021/12/11 01:57:59;;;;;;;19.55;10.85;;;;;;;3.05;82.69;99475.78;5070546;28;20032;-21
2021/12/11 02:00:34;;;;;;;20.08;11.98;;;;;;;2.73;83.05;99490.16;5088525;28;20176;-21
2021/12/11 02:03:01;;;;;;;20.88;11.80;;;;;;;2.76;84.12;99479.28;5088838;28;20480;-20
2021/12/11 02:05:28;;;;;;;21.40;13.03;;;;;;;2.79;82.25;99463.91;5070502;28;20094;-20
2021/12/11 02:07:56;;;;;;;20.33;12.70;;;;;;;2.95;81.74;99483.16;5088229;28;20028;-20
2021/12/11 02:10:33;;;;;;;19.27;11.70;;;;;;;2.70;82.22;99485.25;5088488;28;20111;-20
2021/12/11 02:12:59;;;;;;;20.55;12.18;;;;;;;2.58;82.61;99461.22;5088222;28;20430;-20
2021/12/11 02:15:31;;;;;;;32.92;24.40;;;;;;;2.63;83.44;99479.06;5088389;28;20035;-21
2021/12/11 02:18:11;;;;;;;18.05;10.57;;;;;;;1.97;85.18;99464.75;5088347;28;20028;-20
2021/12/11 02:20:41;;;;;;;20.55;11.07;;;;;;;2.03;84.72;99483.47;5088226;28;20032;-21
2021/12/11 02:23:06;;;;;;;17.35;10.57;;;;;;;1.78;85.31;99497.63;5088376;28;20046;-20
2021/12/11 02:25:37;;;;;;;18.75;9.82;;;;;;;2.33;82.85;99479.03;5087785;28;20435;-20
2021/12/11 02:28:12;;;;;;;20.40;10.85;;;;;;;2.33;83.28;99453.56;5088072;28;20028;-21
2021/12/11 02:30:48;;;;;;;17.65;10.20;;;;;;;2.58;82.87;99477.00;5087638;28;20403;-20
2021/12/11 02:33:20;;;;;;;19.02;11.73;;;;;;;2.98;82.57;99485.41;5087868;28;20024;-20
2021/12/11 02:35:47;;;;;;;19.33;11.93;;;;;;;3.01;82.50;99483.22;5087598;28;20055;-20
2021/12/11 02:38:20;;;;;;;23.05;14.00;;;;;;;3.25;81.32;99488.34;5087538;28;20051;-20
2021/12/11 02:41:00;;;;;;;17.85;10.75;;;;;;;3.31;80.80;99487.63;5087654;28;20105;-20
2021/12/11 02:43:33;;;;;;;17.92;10.80;;;;;;;3.24;81.51;99478.84;5088175;28;20786;-21
2021/12/11 02:46:15;;;;;;;20.15;10.70;;;;;;;2.89;82.10;99452.28;5087711;28;20052;-20
2021/12/11 02:48:45;;;;;;;21.33;11.27;;;;;;;2.90;83.48;99460.00;5087604;28;20039;-22
2021/12/11 02:51:12;;;;;;;17.52;10.93;;;;;;;2.83;83.19;99463.56;5087988;28;20767;-21
2021/12/11 02:53:51;;;;;;;66.38;59.10;;;;;;;3.12;83.18;99463.50;5087751;28;20466;-20
2021/12/11 02:56:22;;;;;;;27.92;16.13;;;;;;;3.23;82.16;99478.03;5087900;28;20117;-20
2021/12/11 02:58:50;;;;;;;26.88;19.52;;;;;;;3.05;83.69;99491.59;5087947;28;20023;-20
2021/12/11 03:01:37;;;;;;;29.42;18.58;;;;;;;3.02;83.73;99473.50;5088136;28;20028;-20
2021/12/11 03:04:20;;;;;;;31.35;18.25;;;;;;;3.07;82.09;99484.31;5072959;28;20028;-20
2021/12/11 03:06:48;;;;;;;30.70;18.73;;;;;;;2.78;83.85;99451.75;5087899;28;20048;-21
2021/12/11 03:09:18;;;;;;;29.92;18.10;;;;;;;3.17;82.14;99465.59;5069938;28;20107;-21
2021/12/11 03:11:44;;;;;;;32.70;22.38;;;;;;;3.32;81.55;99478.72;5087488;28;20495;-20
2021/12/11 03:14:12;;;;;;;34.28;21.92;;;;;;;3.46;81.25;99482.31;5087493;28;20039;-21
2021/12/11 03:16:38;;;;;;;29.92;20.33;;;;;;;3.58;80.32;99479.00;5069795;28;20036;-20
2021/12/11 03:19:05;;;;;;;32.47;20.05;;;;;;;3.52;80.57;99479.75;5087788;28;20043;-20
2021/12/11 03:21:30;;;;;;;41.28;24.27;;;;;;;3.49;81.70;99458.22;5087739;28;20032;-20
2021/12/11 03:23:55;;;;;;;25.73;17.17;;;;;;;2.98;82.77;99430.94;5086414;28;20081;-20
2021/12/11 03:26:21;;;;;;;51.17;26.00;;;;;;;3.07;83.65;99471.16;5087247;28;20036;-20
2021/12/11 03:28:46;;;;;;;54.03;35.53;;;;;;;3.36;84.07;99459.69;5087429;28;20040;-20
2021/12/11 03:31:12;;;;;;;31.02;18.08;;;;;;;3.81;81.46;99462.97;5087266;28;20111;-20
2021/12/11 03:33:43;;;;;;;29.10;16.08;;;;;;;3.85;80.77;99452.88;5087546;28;20025;-20
2021/12/11 03:36:10;;;;;;;127.65;69.13;;;;;;;3.54;80.95;99451.38;5066191;28;20055;-20
2021/12/11 03:38:36;;;;;;;43.80;24.80;;;;;;;3.55;82.17;99442.44;5069753;28;20515;-20
2021/12/11 03:41:01;;;;;;;80.15;35.45;;;;;;;3.48;82.89;99415.22;5070745;28;20048;-20
2021/12/11 03:43:27;;;;;;;51.85;27.05;;;;;;;3.56;83.83;99419.56;5070681;28;20078;-20
2021/12/11 03:45:56;;;;;;;25.17;14.45;;;;;;;3.45;84.19;99391.03;5069634;28;20032;-21
2021/12/11 03:48:30;;;;;;;23.55;13.65;;;;;;;3.42;86.10;99390.41;5069712;28;20070;-20
2021/12/11 03:50:56;;;;;;;14.13;8.13;;;;;;;3.43;86.72;99430.75;5070866;28;20043;-20
2021/12/11 03:53:21;;;;;;;8.32;5.07;;;;;;;3.54;87.43;99427.66;5069009;28;20029;-20
2021/12/11 03:55:52;;;;;;;11.15;7.68;;;;;;;3.57;87.66;99437.78;5070613;28;20144;-20
2021/12/11 03:58:18;;;;;;;8.65;4.35;;;;;;;3.53;87.78;99433.09;5070830;28;20054;-21
2021/12/11 04:00:56;;;;;;;6.78;3.67;;;;;;;3.56;88.02;99433.53;5070290;28;20446;-20
2021/12/11 04:03:25;;;;;;;11.25;3.85;;;;;;;3.58;87.79;99434.16;5070661;28;20025;-20
2021/12/11 04:05:51;;;;;;;8.13;4.45;;;;;;;3.57;87.55;99435.16;5070395;28;20036;-20
2021/12/11 04:08:20;;;;;;;43.10;19.00;;;;;;;4.06;85.78;99448.56;5070515;28;20039;-20
2021/12/11 04:10:45;;;;;;;28.60;11.23;;;;;;;4.01;85.32;99452.59;5069938;28;20028;-20
2021/12/11 04:13:11;;;;;;;41.50;14.65;;;;;;;4.08;84.94;99457.09;5070469;28;20035;-20
2021/12/11 04:15:37;;;;;;;39.30;16.73;;;;;;;4.03;85.42;99442.66;5070163;28;20041;-20
2021/12/11 04:18:03;;;;;;;17.85;7.60;;;;;;;3.96;85.82;99439.16;5069222;28;20032;-21
2021/12/11 04:20:30;;;;;;;30.15;15.32;;;;;;;4.14;85.61;99441.31;5070001;28;20031;-20
2021/12/11 04:22:56;;;;;;;33.63;16.23;;;;;;;4.12;85.73;99447.78;5070091;28;20020;-20
2021/12/11 04:25:22;;;;;;;25.75;12.52;;;;;;;4.27;85.40;99467.00;5070106;28;20492;-20
2021/12/11 04:27:48;;;;;;;33.97;14.77;;;;;;;4.42;85.01;99448.41;5070273;28;20050;-21
2021/12/11 04:30:15;;;;;;;33.80;13.23;;;;;;;4.46;84.41;99448.84;5070362;28;20040;-20
2021/12/11 04:32:41;;;;;;;40.25;17.98;;;;;;;4.43;84.69;99440.31;5069718;28;20032;-20
2021/12/11 04:35:07;;;;;;;22.75;11.55;;;;;;;4.48;84.11;99418.59;5074829;28;20079;-20
2021/12/11 04:37:33;;;;;;;20.90;11.43;;;;;;;4.41;85.04;99426.47;5090031;28;20113;-21
2021/12/11 04:40:03;;;;;;;75.15;37.17;;;;;;;4.56;83.53;99436.09;5090331;28;20040;-22
2021/12/11 04:45:06;;;;;;;44.63;25.88;;;;;;;4.68;84.52;99437.19;5090106;28;20040;-21
2021/12/11 04:50:02;;;;;;;18.20;10.45;;;;;;;4.77;83.27;99436.00;5090061;28;20036;-20
2021/12/11 04:52:39;;;;;;;14.75;9.57;;;;;;;4.96;83.29;99429.16;5089676;28;20028;-20
2021/12/11 04:58:11;;;;;;;9.75;4.68;;;;;;;5.26;82.60;99434.13;5090021;28;20141;-20
2021/12/11 05:11:45;;;;;;;36.25;25.48;;;;;;;5.13;84.78;99408.50;5073175;28;20063;-21
2021/12/11 05:14:12;;;;;;;7.65;4.38;;;;;;;5.11;85.00;99396.47;5089756;28;20028;-20
2021/12/11 05:16:38;;;;;;;11.60;4.60;;;;;;;5.14;85.27;99396.88;5071008;28;20036;-20
2021/12/11 05:19:04;;;;;;;15.38;10.30;;;;;;;5.14;85.38;99404.00;5071265;28;20806;-20
2021/12/11 05:21:30;;;;;;;14.32;7.55;;;;;;;5.21;86.05;99413.59;5089085;28;20036;-21
2021/12/11 05:23:55;;;;;;;12.18;5.82;;;;;;;5.46;85.08;99423.59;5089350;28;20500;-20
2021/12/11 05:26:21;;;;;;;12.35;5.20;;;;;;;5.43;85.63;99430.13;5088933;28;20039;-20
2021/12/11 05:28:46;;;;;;;10.25;5.53;;;;;;;5.28;86.01;99420.72;5088928;28;20065;-20
2021/12/11 05:31:12;;;;;;;38.80;20.60;;;;;;;5.54;85.27;99427.91;5089011;28;20039;-20
2021/12/11 05:33:39;;;;;;;23.10;14.95;;;;;;;5.60;84.26;99430.53;5088788;28;20032;-20
2021/12/11 05:36:06;;;;;;;17.88;11.63;;;;;;;5.60;84.66;99435.84;5088466;28;20095;-21
2021/12/11 05:38:32;;;;;;;12.13;6.82;;;;;;;5.47;85.27;99440.28;5070398;28;20052;-20
2021/12/11 05:41:00;;;;;;;17.83;8.98;;;;;;;5.52;84.96;99425.44;5088802;28;20104;-20
2021/12/11 05:43:25;;;;;;;24.20;14.25;;;;;;;5.57;85.39;99430.13;5071068;28;20051;-20
2021/12/11 05:45:51;;;;;;;40.55;24.33;;;;;;;5.57;85.94;99428.28;5088655;28;20479;-20
2021/12/11 05:48:17;;;;;;;51.88;35.10;;;;;;;5.63;85.19;99413.44;5088638;28;20588;-20
2021/12/11 05:50:49;;;;;;;40.58;26.27;;;;;;;5.74;85.27;99454.34;5088358;28;20039;-19
2021/12/11 05:53:15;;;;;;;22.98;12.95;;;;;;;5.90;84.83;99435.41;5070857;28;20031;-20
2021/12/11 05:55:41;;;;;;;18.33;11.90;;;;;;;6.05;82.75;99448.50;5070235;28;20039;-19
2021/12/11 05:58:11;;;;;;;23.98;14.32;;;;;;;6.07;83.68;99454.41;5088321;28;20381;-20
2021/12/11 06:00:41;;;;;;;24.08;15.10;;;;;;;6.11;83.84;99441.56;5087838;28;20032;-20
2021/12/11 06:03:07;;;;;;;35.45;28.88;;;;;;;5.92;84.00;99425.44;5088467;28;20032;-20
2021/12/11 06:05:33;;;;;;;17.95;12.63;;;;;;;5.55;86.36;99443.53;5070015;28;20031;-20
2021/12/11 06:07:58;;;;;;;20.40;12.90;;;;;;;5.58;86.85;99451.09;5070036;28;20119;-20
2021/12/11 06:10:24;;;;;;;22.15;13.60;;;;;;;5.60;87.06;99451.69;5088226;28;20164;-21
2021/12/11 06:12:51;;;;;;;14.35;8.73;;;;;;;5.73;86.41;99437.66;5088107;28;20028;-20
2021/12/11 06:15:17;;;;;;;12.73;5.93;;;;;;;5.57;86.62;99441.50;5088094;28;20024;-20
2021/12/11 06:17:43;;;;;;;19.95;11.38;;;;;;;5.49;87.52;99449.63;5088253;28;20024;-20
2021/12/11 06:20:11;;;;;;;15.00;8.35;;;;;;;5.49;86.93;99425.84;5088194;28;20024;-20
2021/12/11 06:22:36;;;;;;;24.53;12.83;;;;;;;5.64;87.11;99446.84;5069866;28;20023;-20
2021/12/11 06:25:08;;;;;;;18.88;9.15;;;;;;;5.62;86.83;99439.09;5087914;28;20028;-20
2021/12/11 06:27:34;;;;;;;18.75;10.80;;;;;;;5.56;87.67;99453.13;5087975;28;20027;-20
2021/12/11 06:29:59;;;;;;;21.02;13.18;;;;;;;5.74;86.64;99457.84;5087866;28;20035;-20
2021/12/11 06:32:25;;;;;;;11.73;6.93;;;;;;;5.79;86.52;99449.28;5069660;28;20638;-21
2021/12/11 06:34:52;;;;;;;21.25;11.27;;;;;;;5.77;87.37;99448.66;5069525;28;20157;-21
2021/12/11 06:37:20;;;;;;;24.23;13.52;;;;;;;5.77;86.88;99430.16;5081960;28;20672;-20
2021/12/11 06:39:45;;;;;;;27.02;15.50;;;;;;;5.67;88.01;99445.59;5050050;28;20075;-19
2021/12/11 06:42:11;;;;;;;22.27;12.80;;;;;;;5.76;87.66;99445.22;5067572;28;20040;-20
2021/12/11 06:44:37;;;;;;;35.97;21.73;;;;;;;5.80;88.01;99448.25;5049211;28;20221;-20
2021/12/11 06:47:04;;;;;;;30.85;16.95;;;;;;;6.07;87.03;99448.28;5067535;28;20029;-21
2021/12/11 06:49:31;;;;;;;17.90;8.25;;;;;;;6.23;86.03;99447.84;5033076;28;20032;-20
2021/12/11 06:51:56;;;;;;;31.77;14.65;;;;;;;6.39;85.31;99447.41;5067535;28;20048;-20
2021/12/11 06:54:22;;;;;;;25.38;13.05;;;;;;;6.39;85.04;99417.47;5067773;28;20035;-21
2021/12/11 06:56:47;;;;;;;15.30;8.80;;;;;;;6.82;83.40;99433.69;5067613;28;20043;-20
2021/12/11 06:59:13;;;;;;;13.27;7.93;;;;;;;7.07;83.28;99435.63;5067785;28;20691;-20
2021/12/11 07:01:38;;;;;;;24.63;16.00;;;;;;;7.12;83.05;99427.00;5067580;28;20056;-20
2021/12/11 07:04:06;;;;;;;12.63;5.78;;;;;;;7.12;83.59;99438.44;5067983;28;20085;-19
2021/12/11 07:06:32;;;;;;;18.00;9.55;;;;;;;7.12;82.84;99403.97;5066994;28;20036;-20
2021/12/11 07:08:59;;;;;;;35.20;23.23;;;;;;;7.33;82.46;99457.69;5067245;28;20037;-20
2021/12/11 07:11:25;;;;;;;17.17;11.50;;;;;;;7.60;81.47;99451.22;5069550;28;20036;-20
2021/12/11 07:13:50;;;;;;;14.68;10.90;;;;;;;7.96;79.51;99449.72;5071141;28;20514;-20
2021/12/11 07:16:16;;;;;;;15.80;9.02;;;;;;;8.10;80.47;99465.56;5071070;28;20050;-20
2021/12/11 07:18:41;;;;;;;12.35;5.93;;;;;;;8.35;79.38;99439.75;5070999;28;20029;-20
2021/12/11 07:21:08;;;;;;;10.63;6.55;;;;;;;8.80;77.11;99444.84;5071470;28;20037;-20
2021/12/11 07:23:34;;;;;;;14.35;5.85;;;;;;;9.49;75.97;99451.75;5070826;28;20513;-20
2021/12/11 07:26:12;;;;;;;20.63;11.60;;;;;;;9.83;74.46;99450.22;5070927;28;20032;-20
2021/12/11 07:28:41;;;;;;;10.10;4.95;;;;;;;9.83;74.29;99452.88;5071077;28;20115;-20
2021/12/11 07:31:07;;;;;;;11.38;3.95;;;;;;;9.59;74.29;99442.16;5071236;28;20143;-20
2021/12/11 07:33:32;;;;;;;9.65;4.88;;;;;;;9.59;73.56;99428.88;5070802;28;20044;-20
2021/12/11 07:35:58;;;;;;;12.35;5.53;;;;;;;9.59;73.93;99436.84;5052791;28;20060;-20
2021/12/11 07:38:23;;;;;;;80.00;34.40;;;;;;;9.53;74.11;99439.63;5070662;28;20571;-20
2021/12/11 07:40:53;;;;;;;16.95;7.45;;;;;;;9.40;74.41;99411.34;5070718;28;20036;-20
2021/12/11 07:43:20;;;;;;;8.63;2.95;;;;;;;9.61;74.89;99450.75;5071146;28;20396;-20
2021/12/11 07:45:45;;;;;;;5.15;2.42;;;;;;;9.67;73.62;99454.34;5070687;28;20058;-20
2021/12/11 07:48:11;;;;;;;11.07;3.72;;;;;;;9.69;73.76;99454.13;5070994;28;20529;-20
2021/12/11 07:50:37;;;;;;;7.85;3.42;;;;;;;9.82;73.25;99453.91;5052404;28;20484;-20
2021/12/11 07:53:03;;;;;;;12.23;4.10;;;;;;;9.84;73.18;99447.31;5070580;28;20632;-20
2021/12/11 07:55:28;;;;;;;14.85;8.63;;;;;;;9.81;73.70;99444.31;5070516;28;20043;-20
2021/12/11 07:57:54;;;;;;;12.70;7.50;;;;;;;9.64;74.13;99433.50;5070352;28;20024;-20
2021/12/11 08:00:22;;;;;;;8.48;5.00;;;;;;;9.94;74.35;99435.28;5070672;28;20036;-20
2021/12/11 08:02:47;;;;;;;7.40;4.20;;;;;;;10.30;73.47;99422.81;5070147;28;20089;-20
2021/12/11 08:05:13;;;;;;;9.55;4.13;;;;;;;10.25;73.90;99423.47;5070183;28;20466;-20
2021/12/11 08:07:39;;;;;;;14.27;8.50;;;;;;;10.41;72.43;99396.16;5070105;28;20031;-20
2021/12/11 08:10:10;;;;;;;10.32;4.85;;;;;;;10.71;71.89;99408.50;5069385;28;20036;-20
2021/12/11 08:12:35;;;;;;;14.95;7.95;;;;;;;10.80;71.34;99404.41;5068602;28;20021;-20
2021/12/11 08:15:01;;;;;;;9.40;4.72;;;;;;;10.74;72.12;99392.03;5069754;28;20031;-19
2021/12/11 08:17:27;;;;;;;7.90;3.60;;;;;;;10.82;72.59;99413.00;5070259;28;20495;-20
2021/12/11 08:19:52;;;;;;;11.25;4.65;;;;;;;11.04;73.23;99415.03;5069817;28;20036;-20
2021/12/11 08:22:18;;;;;;;20.60;9.77;;;;;;;11.25;70.72;99418.88;5034943;28;20035;-20
2021/12/11 08:24:43;;;;;;;36.72;19.45;;;;;;;11.33;71.39;99413.16;5070349;28;20055;-19
2021/12/11 08:27:15;;;;;;;19.85;8.95;;;;;;;11.49;71.68;99411.56;5069956;28;20043;-19
2021/12/11 08:29:43;;;;;;;13.98;5.88;;;;;;;11.61;70.10;99425.66;5070326;28;20056;-20
2021/12/11 08:32:09;;;;;;;15.73;6.88;;;;;;;11.77;70.35;99420.56;5070057;28;20021;-21
2021/12/11 08:34:35;;;;;;;25.67;11.20;;;;;;;11.60;71.45;99429.38;5069057;28;20067;-19
2021/12/11 08:37:01;;;;;;;30.55;14.45;;;;;;;11.79;70.42;99431.81;5069880;28;20021;-20
2021/12/11 08:39:27;;;;;;;16.25;6.97;;;;;;;11.60;72.46;99424.03;5070130;28;20086;-20
2021/12/11 08:41:53;;;;;;;31.90;16.15;;;;;;;11.71;71.95;99418.84;5069857;28;20032;-20
2021/12/11 08:44:18;;;;;;;17.30;7.43;;;;;;;11.87;71.78;99423.44;5070001;28;20553;-20
2021/12/11 08:46:49;;;;;;;22.52;11.40;;;;;;;11.77;72.96;99393.84;5069576;28;20169;-20
2021/12/11 08:49:18;;;;;;;29.65;14.25;;;;;;;11.78;72.14;99401.63;5070004;28;20036;-20
2021/12/11 08:52:07;;;;;;;21.50;9.82;;;;;;;11.65;72.07;99389.41;5069886;28;20408;-20
2021/12/11 08:54:32;;;;;;;;;;;;;;;11.51;74.67;99400.66;5070010;28;20024;-19
2021/12/11 08:56:59;;;;;;;12.15;5.82;;;;;;;11.09;75.68;99400.97;5069474;28;19923;-19
2021/12/11 08:59:26;;;;;;;13.85;5.28;;;;;;;10.88;76.25;99362.44;5069501;28;20039;-19
2021/12/11 09:01:57;;;;;;;11.80;3.80;;;;;;;11.13;75.68;99394.91;5069456;28;20020;-20
2021/12/11 09:04:27;;;;;;;10.10;3.88;;;;;;;10.93;76.53;99383.84;5069189;28;20040;-20
2021/12/11 09:06:58;;;;;;;15.73;7.80;;;;;;;10.97;77.58;99374.31;5069301;28;20029;-19
2021/12/11 09:09:26;;;;;;;31.23;19.92;;;;;;;10.75;78.46;99380.31;5069389;28;20032;-19
2021/12/11 09:12:00;;;;;;;11.27;4.32;;;;;;;10.61;78.41;99354.97;5069109;28;20381;-20
2021/12/11 09:14:40;;;;;;;12.13;6.32;;;;;;;10.41;80.11;99358.84;5069016;28;20064;-19
2021/12/11 09:17:06;;;;;;;40.00;19.58;;;;;;;10.58;80.45;99358.09;5069128;28;20086;-19
2021/12/11 09:19:40;;;;;;;54.72;28.30;;;;;;;10.58;79.21;99355.44;5068956;28;20127;-20
2021/12/11 09:22:41;;;;;;;18.80;9.77;;;;;;;10.52;79.93;99351.06;5069124;28;20037;-20
2021/12/11 09:25:30;;;;;;;41.50;22.77;;;;;;;10.64;80.17;99326.00;4987388;28;20041;-19
2021/12/11 09:27:59;;;;;;;23.63;10.27;;;;;;;10.61;80.73;99315.78;5065101;28;20101;-20
2021/12/11 09:30:48;;;;;;;18.00;10.35;;;;;;;10.65;81.49;99329.47;5068711;28;20036;-20
2021/12/11 09:33:17;;;;;;;11.55;6.10;;;;;;;10.76;82.11;99328.59;5068510;28;20125;-19
2021/12/11 09:35:58;;;;;;;6.85;2.90;;;;;;;10.90;82.15;99313.13;5067913;28;20056;-20
2021/12/11 09:38:38;;;;;;;9.95;3.65;;;;;;;10.96;81.89;99312.16;5068955;28;20121;-20
2021/12/11 09:41:24;;;;;;;7.85;3.10;;;;;;;10.97;82.11;99307.63;5068892;28;20112;-19
2021/12/11 09:44:15;;;;;;;10.55;3.08;;;;;;;10.95;83.10;99312.38;5068812;28;20037;-20
2021/12/11 09:46:56;;;;;;;7.28;3.20;;;;;;;10.94;83.61;99282.25;5068365;28;20028;-19
2021/12/11 09:49:24;;;;;;;6.05;2.30;;;;;;;11.02;83.98;99299.72;5068618;28;20390;-21
2021/12/11 09:51:51;;;;;;;;;;;;;;;11.04;84.74;99300.28;5069020;28;20024;-20
2021/12/11 09:54:19;;;;;;;23.77;9.63;;;;;;;10.85;86.34;99295.16;5068726;28;19916;-20
2021/12/11 09:56:52;;;;;;;12.18;2.80;;;;;;;11.17;86.92;99297.31;5068251;28;20074;-19
2021/12/11 09:59:19;;;;;;;11.50;3.60;;;;;;;11.04;86.21;99277.09;5068290;28;20515;-20
2021/12/11 10:01:47;;;;;;;20.05;10.05;;;;;;;11.18;86.28;99271.44;5068250;28;20043;-19
2021/12/11 10:04:19;;;;;;;22.70;10.10;;;;;;;11.36;86.45;99271.22;5068364;28;20024;-19
2021/12/11 10:07:12;;;;;;;16.77;7.88;;;;;;;11.66;85.34;99273.50;5068272;28;20539;-19
2021/12/11 10:10:02;;;;;;;15.45;5.85;;;;;;;11.64;85.20;99270.25;5067993;28;20036;-19
2021/12/11 10:12:43;;;;;;;16.60;6.72;;;;;;;11.69;85.66;99274.91;5068351;28;20037;-21
2021/12/11 10:15:08;;;;;;;16.25;4.88;;;;;;;11.63;85.74;99282.03;5068075;28;20032;-19
2021/12/11 10:17:39;;;;;;;16.67;7.43;;;;;;;11.64;86.17;99270.25;5067985;28;20111;-20
2021/12/11 10:20:26;;;;;;;20.50;8.57;;;;;;;11.96;85.48;99276.88;5068159;28;20036;-19
2021/12/11 10:22:53;;;;;;;52.22;25.27;;;;;;;11.83;84.18;99272.69;5067222;28;20044;-20
2021/12/11 10:25:20;;;;;;;15.98;5.00;;;;;;;11.54;85.59;99264.78;5068071;28;20039;-19
2021/12/11 10:27:46;;;;;;;20.00;9.85;;;;;;;11.94;85.70;99279.00;5067892;28;20488;-20
2021/12/11 10:30:15;;;;;;;17.80;8.52;;;;;;;11.86;84.33;99258.81;5067976;28;20068;-20
2021/12/11 10:32:41;;;;;;;26.92;13.00;;;;;;;12.17;84.76;99252.03;5067556;28;20036;-19
2021/12/11 10:35:13;;;;;;;12.90;5.35;;;;;;;12.29;83.40;99245.75;5067391;28;20091;-19
2021/12/11 10:37:38;;;;;;;12.52;7.38;;;;;;;12.10;84.02;99242.59;5067782;28;20487;-20
2021/12/11 10:40:08;;;;;;;12.70;6.30;;;;;;;12.10;83.75;99245.28;5067280;28;20039;-19
2021/12/11 10:42:34;;;;;;;11.35;6.43;;;;;;;11.81;84.68;99238.19;5067569;28;20032;-20
2021/12/11 10:45:01;;;;;;;14.57;8.43;;;;;;;12.20;83.36;99240.06;5067851;28;20914;-19
2021/12/11 10:47:29;;;;;;;16.17;8.20;;;;;;;12.02;84.05;99217.13;5068376;28;20750;-19
2021/12/11 10:49:55;;;;;;;16.05;3.78;;;;;;;11.94;84.16;99225.56;5067565;28;20064;-20
2021/12/11 10:52:27;;;;;;;11.45;4.47;;;;;;;11.51;85.90;99217.22;5049838;28;20059;-19
2021/12/11 10:54:53;;;;;;;20.27;9.57;;;;;;;11.19;87.71;99225.00;5049643;28;20082;-20
2021/12/11 10:57:19;;;;;;;18.67;7.35;;;;;;;10.97;89.44;99208.91;5067600;28;20511;-19
2021/12/11 10:59:45;;;;;;;20.10;8.55;;;;;;;11.06;89.48;99215.47;5067444;28;20060;-20
2021/12/11 11:02:17;;;;;;;29.48;11.90;;;;;;;11.10;90.00;99210.47;5067693;28;20495;-20
2021/12/11 11:04:46;;;;;;;17.35;7.18;;;;;;;11.01;90.30;99215.38;5067162;28;20032;-20
2021/12/11 11:07:12;;;;;;;41.53;22.17;;;;;;;10.99;91.38;99226.31;5067486;28;20693;-20
2021/12/11 11:09:38;;;;;;;17.60;8.40;;;;;;;10.79;90.87;99194.78;5067467;28;20064;-20
2021/12/11 11:12:07;;;;;;;13.40;6.05;;;;;;;11.00;91.28;99211.91;5067558;28;20028;-19
2021/12/11 11:14:33;;;;;;;11.68;4.80;;;;;;;10.94;91.61;99202.22;5067374;28;20028;-20
2021/12/11 11:17:01;;;;;;;13.98;8.27;;;;;;;11.11;92.03;99196.88;5067381;28;20032;-19
2021/12/11 11:19:27;;;;;;;17.15;9.43;;;;;;;11.34;92.40;99189.72;5067470;28;20024;-20
2021/12/11 11:21:58;;;;;;;12.23;6.45;;;;;;;11.49;91.79;99187.28;5067303;28;20830;-20
2021/12/11 11:24:29;;;;;;;11.38;6.03;;;;;;;11.52;92.36;99185.97;5067332;28;20047;-20
2021/12/11 11:26:54;;;;;;;15.57;8.50;;;;;;;11.60;91.86;99186.34;5067475;28;20407;-19
2021/12/11 11:29:21;;;;;;;13.55;6.75;;;;;;;11.69;91.35;99178.75;5067257;28;20043;-20
2021/12/11 11:31:48;;;;;;;11.23;5.35;;;;;;;11.70;90.98;99158.19;5067188;28;20039;-20
2021/12/11 11:34:15;;;;;;;11.85;5.72;;;;;;;11.93;90.37;99165.16;5066678;28;20032;-20
2021/12/11 11:36:41;;;;;;;11.03;5.10;;;;;;;11.83;90.30;99166.63;5067267;28;20154;-19
2021/12/11 11:39:09;;;;;;;9.77;4.28;;;;;;;11.83;89.57;99147.13;5067356;28;20515;-20
2021/12/11 11:41:55;;;;;;;9.10;5.07;;;;;;;11.95;89.97;99152.34;5067534;28;20020;-19
2021/12/11 11:44:21;;;;;;;11.02;5.43;;;;;;;11.84;90.26;99141.53;5067303;28;20416;-20
2021/12/11 11:46:47;;;;;;;12.10;5.70;;;;;;;11.81;90.68;99151.88;5049099;28;20044;-19
2021/12/11 11:49:13;;;;;;;9.77;4.22;;;;;;;11.70;91.51;99137.59;5067118;28;20033;-19
2021/12/11 11:52:08;;;;;;;10.15;4.50;;;;;;;11.69;92.17;99144.03;5067183;28;20037;-19
2021/12/11 11:54:34;;;;;;;6.95;4.43;;;;;;;11.68;92.25;99149.59;5064409;28;20396;-19
2021/12/11 11:57:31;;;;;;;7.25;2.60;;;;;;;11.51;93.77;99144.31;5066958;28;20086;-20